LFPM 030630Z AUTO 05007KT 360V100 9999 OVC014 03/01 Q1016

Pour rejoindre notre aéroclub
Il suffit d'en faire la demande sur place. Une fois acceptée par le Bureau, il vous faudra régler :

  • l'adhésion de 10 €
  • la cotisation annuelle 180 € ou 90 € pour les moins de 21 ans,
  • l'adhésion à la Fédération Française Aéronautique 79 € ou 124 € si abonnement au magazine Info-pilote
  • la cotisation au GALE. 8 € (Groupe Aérien de Lognes-Emerainville)
Les dossiers d'inscription sont à retirer dans les locaux de l'aéroclub

 

Pour en savoir plus sur la Fédération Française Aéronautique, cliquer sur le logo